createdAt,value
2018-08-07T00:00:40.010Z,4.70
2018-08-07T00:03:09.886Z,4.90
2018-08-07T00:05:39.835Z,4.63
2018-08-07T00:08:10.046Z,5.40
2018-08-07T00:10:40.360Z,5.30
2018-08-07T00:13:10.132Z,5.00
2018-08-07T00:15:38.895Z,6.63
2018-08-07T00:18:07.852Z,7.13
2018-08-07T00:20:38.197Z,6.03
2018-08-07T00:23:07.345Z,5.63
2018-08-07T00:25:36.110Z,6.23
2018-08-07T00:28:05.031Z,5.30
2018-08-07T00:30:33.741Z,5.43
2018-08-07T00:33:02.544Z,5.60
2018-08-07T00:35:31.973Z,6.20
2018-08-07T00:38:00.983Z,6.10
2018-08-07T00:40:29.902Z,5.33
2018-08-07T00:42:59.205Z,5.40
2018-08-07T00:45:28.199Z,6.07
2018-08-07T00:47:57.578Z,5.70
2018-08-07T00:50:26.354Z,5.10
2018-08-07T00:52:55.636Z,5.43
2018-08-07T00:55:24.698Z,5.93
2018-08-07T00:57:53.775Z,6.20
2018-08-07T01:00:23.067Z,6.10
2018-08-07T01:02:52.101Z,5.90
2018-08-07T01:05:20.839Z,5.70
2018-08-07T01:07:49.930Z,6.20
2018-08-07T01:10:19.295Z,5.70
2018-08-07T01:12:48.240Z,5.90
2018-08-07T01:15:19.601Z,6.13
2018-08-07T01:17:49.093Z,6.70
2018-08-07T01:20:20.952Z,6.50
2018-08-07T01:22:49.731Z,6.60
2018-08-07T01:25:22.560Z,5.37
2018-08-07T01:27:51.627Z,6.73
2018-08-07T01:30:35.199Z,5.20
2018-08-07T01:33:04.238Z,5.90
2018-08-07T01:35:32.959Z,6.17
2018-08-07T01:38:01.823Z,5.60
2018-08-07T01:40:30.749Z,5.23
2018-08-07T01:42:59.874Z,5.60
2018-08-07T01:45:29.114Z,5.73
2018-08-07T01:47:57.880Z,5.03
2018-08-07T01:50:26.848Z,5.57
2018-08-07T01:52:55.621Z,5.60
2018-08-07T01:55:27.759Z,5.37
2018-08-07T01:57:56.536Z,5.80
2018-08-07T02:00:25.413Z,6.63
2018-08-07T02:02:54.192Z,6.10
2018-08-07T02:05:22.985Z,6.17
2018-08-07T02:07:51.902Z,6.30
2018-08-07T02:10:27.242Z,6.30
2018-08-07T02:12:55.994Z,6.10
2018-08-07T02:15:24.720Z,6.70
2018-08-07T02:17:53.745Z,6.63
2018-08-07T02:20:22.784Z,6.70
2018-08-07T02:22:51.545Z,6.83
2018-08-07T02:25:20.738Z,6.37
2018-08-07T02:27:49.631Z,5.57
2018-08-07T02:30:19.169Z,6.07
2018-08-07T02:32:47.871Z,6.13
2018-08-07T02:35:17.348Z,5.97
2018-08-07T02:37:47.329Z,6.20
2018-08-07T02:40:16.944Z,6.30
2018-08-07T02:42:46.181Z,5.83
2018-08-07T02:45:17.678Z,6.10
2018-08-07T02:47:46.838Z,5.93
2018-08-07T02:50:17.645Z,5.97
2018-08-07T02:52:46.882Z,6.37
2018-08-07T02:55:15.828Z,5.67
2018-08-07T02:57:45.202Z,5.30
2018-08-07T03:00:17.769Z,5.77
2018-08-07T03:02:46.988Z,6.47
2018-08-07T03:05:16.239Z,7.10
2018-08-07T03:07:45.292Z,5.90
2018-08-07T03:10:14.038Z,6.90
2018-08-07T03:12:43.377Z,6.37
2018-08-07T03:15:14.993Z,6.40
2018-08-07T03:17:45.327Z,7.63
2018-08-07T03:20:14.378Z,5.50
2018-08-07T03:22:43.181Z,6.03
2018-08-07T03:25:13.255Z,6.50
2018-08-07T03:27:43.240Z,6.80
2018-08-07T03:30:14.488Z,6.70
2018-08-07T03:32:43.861Z,6.70
2018-08-07T03:35:12.580Z,8.00
2018-08-07T03:37:41.593Z,8.13
2018-08-07T03:40:14.165Z,7.23
2018-08-07T03:42:43.575Z,8.90
2018-08-07T03:45:14.368Z,6.80
2018-08-07T03:47:43.588Z,6.50
2018-08-07T03:50:12.742Z,6.03
2018-08-07T03:52:41.954Z,6.13
2018-08-07T03:55:15.712Z,5.80
2018-08-07T03:57:45.250Z,6.20
2018-08-07T04:00:18.069Z,6.17
2018-08-07T04:02:47.035Z,5.83
2018-08-07T04:05:16.128Z,7.50
2018-08-07T04:07:44.914Z,11.10
2018-08-07T04:10:15.901Z,11.40
2018-08-07T04:12:44.902Z,11.37
2018-08-07T04:15:16.143Z,10.97
2018-08-07T04:17:45.726Z,10.00
2018-08-07T04:20:17.509Z,11.10
2018-08-07T04:22:46.422Z,9.33
2018-08-07T04:25:15.175Z,7.63
2018-08-07T04:27:44.830Z,7.90
2018-08-07T04:30:16.155Z,7.00
2018-08-07T04:32:45.148Z,6.77
2018-08-07T04:35:15.282Z,6.90
2018-08-07T04:37:44.470Z,7.30
2018-08-07T04:40:13.397Z,8.90
2018-08-07T04:42:42.534Z,8.73
2018-08-07T04:45:13.322Z,9.43
2018-08-07T04:47:43.335Z,12.83
2018-08-07T04:50:12.958Z,10.83
2018-08-07T04:52:42.617Z,11.23
2018-08-07T04:55:13.524Z,9.97
2018-08-07T04:57:42.371Z,8.70
2018-08-07T05:00:19.737Z,7.87
2018-08-07T05:02:49.754Z,8.90
2018-08-07T05:05:18.684Z,9.83
2018-08-07T05:07:48.145Z,10.93
2018-08-07T05:10:18.185Z,10.17
2018-08-07T05:12:47.615Z,11.10
2018-08-07T05:15:16.751Z,13.30
2018-08-07T05:17:47.236Z,11.97
2018-08-07T05:20:16.521Z,12.53
2018-08-07T05:22:46.103Z,11.40
2018-08-07T05:25:15.209Z,11.87
2018-08-07T05:27:44.568Z,11.60
2018-08-07T05:30:14.886Z,12.03
2018-08-07T05:32:43.898Z,12.83
2018-08-07T05:35:13.840Z,11.97
2018-08-07T05:37:43.058Z,11.77
2018-08-07T05:40:12.709Z,11.70
2018-08-07T05:42:41.939Z,11.57
2018-08-07T05:45:12.954Z,12.67
2018-08-07T05:47:41.720Z,11.47
2018-08-07T05:50:13.090Z,11.80
2018-08-07T05:52:42.157Z,11.57
2018-08-07T05:55:11.492Z,12.00
2018-08-07T05:57:40.877Z,12.17
2018-08-07T06:00:13.533Z,10.87
2018-08-07T06:02:42.627Z,11.63
2018-08-07T06:05:11.741Z,10.90
2018-08-07T06:07:40.544Z,10.67
2018-08-07T06:10:11.100Z,10.53
2018-08-07T06:12:40.047Z,10.00
2018-08-07T06:15:11.275Z,11.40
2018-08-07T06:17:40.756Z,10.10
2018-08-07T06:20:11.214Z,10.80
2018-08-07T06:22:39.942Z,10.37
2018-08-07T06:25:10.142Z,10.90
2018-08-07T06:27:39.094Z,11.30
2018-08-07T06:30:21.964Z,11.00
2018-08-07T06:32:51.053Z,11.27
2018-08-07T06:35:20.003Z,12.07
2018-08-07T06:37:48.802Z,11.27
2018-08-07T06:40:17.560Z,12.10
2018-08-07T06:42:46.343Z,10.67
2018-08-07T06:45:16.263Z,10.67
2018-08-07T06:47:45.012Z,10.80
2018-08-07T06:50:16.865Z,10.67
2018-08-07T06:52:46.645Z,10.93
2018-08-07T06:55:15.447Z,9.77
2018-08-07T06:57:44.406Z,9.43
2018-08-07T07:00:18.885Z,9.37
2018-08-07T07:02:48.416Z,9.53
2018-08-07T07:05:17.718Z,9.03
2018-08-07T07:07:46.904Z,8.97
2018-08-07T07:10:15.991Z,10.60
2018-08-07T07:12:45.863Z,9.37
2018-08-07T07:15:15.638Z,10.13
2018-08-07T07:17:46.034Z,8.50
2018-08-07T07:20:16.089Z,8.77
2018-08-07T07:22:46.247Z,9.10
2018-08-07T07:25:15.299Z,7.73
2018-08-07T07:27:44.357Z,7.23
2018-08-07T07:30:19.785Z,7.23
2018-08-07T07:32:49.981Z,7.50
2018-08-07T07:35:19.383Z,6.47
2018-08-07T07:37:48.665Z,5.63
2018-08-07T07:40:17.745Z,5.40
2018-08-07T07:42:46.515Z,4.77
2018-08-07T07:45:20.367Z,4.87
2018-08-07T07:47:49.441Z,5.00
2018-08-07T07:50:20.761Z,4.50
2018-08-07T07:52:49.792Z,4.37
2018-08-07T07:55:19.200Z,4.67
2018-08-07T07:57:47.981Z,3.33
2018-08-07T08:00:23.509Z,4.30
2018-08-07T08:02:52.467Z,3.77
2018-08-07T08:05:22.080Z,4.33
2018-08-07T08:07:50.910Z,3.93
2018-08-07T08:10:20.033Z,4.63
2018-08-07T08:12:49.083Z,3.77
2018-08-07T08:15:18.721Z,3.50
2018-08-07T08:17:48.305Z,3.60
2018-08-07T08:20:20.807Z,4.00
2018-08-07T08:22:50.847Z,3.83
2018-08-07T08:25:19.616Z,4.23
2018-08-07T08:27:49.125Z,3.47
2018-08-07T08:30:18.534Z,2.17
2018-08-07T08:32:47.635Z,2.97
2018-08-07T08:35:17.483Z,3.17
2018-08-07T08:37:46.727Z,2.73
2018-08-07T08:40:19.537Z,2.97
2018-08-07T08:42:48.284Z,2.50
2018-08-07T08:45:19.587Z,2.17
2018-08-07T08:47:50.909Z,2.90
2018-08-07T08:50:20.771Z,3.43
2018-08-07T08:52:49.819Z,1.93
2018-08-07T08:55:18.582Z,2.20
2018-08-07T08:57:47.325Z,2.27
2018-08-07T09:00:23.132Z,2.70
2018-08-07T09:02:55.584Z,2.40
2018-08-07T09:05:24.411Z,1.73
2018-08-07T09:07:53.729Z,1.80
2018-08-07T09:10:29.410Z,1.93
2018-08-07T09:12:59.342Z,2.10
2018-08-07T09:15:28.123Z,2.20
2018-08-07T09:17:57.218Z,2.00
2018-08-07T09:20:30.529Z,2.10
2018-08-07T09:22:59.645Z,2.50
2018-08-07T09:25:29.904Z,1.93
2018-08-07T09:27:59.180Z,3.17
2018-08-07T09:30:29.430Z,2.60
2018-08-07T09:32:59.037Z,2.67
2018-08-07T09:35:28.170Z,2.70
2018-08-07T09:37:57.630Z,2.97
2018-08-07T09:40:29.262Z,2.70
2018-08-07T09:42:58.492Z,2.53
2018-08-07T09:45:36.310Z,3.03
2018-08-07T09:48:09.808Z,2.83
2018-08-07T09:50:39.000Z,2.53
2018-08-07T09:53:07.878Z,2.70
2018-08-07T09:55:36.954Z,2.70
2018-08-07T09:58:06.346Z,3.13
2018-08-07T10:00:40.277Z,2.30
2018-08-07T10:03:12.556Z,2.37
2018-08-07T10:05:41.352Z,2.30
2018-08-07T10:08:10.136Z,3.23
2018-08-07T10:10:39.699Z,3.43
2018-08-07T10:13:08.556Z,4.10
2018-08-07T10:15:39.627Z,2.43
2018-08-07T10:18:08.576Z,2.97
2018-08-07T10:20:38.193Z,3.47
2018-08-07T10:23:07.282Z,2.90
2018-08-07T10:25:36.714Z,3.97
2018-08-07T10:28:05.523Z,3.10
2018-08-07T10:30:35.145Z,2.40
2018-08-07T10:33:04.211Z,2.67
2018-08-07T10:35:33.184Z,3.10
2018-08-07T10:38:01.903Z,2.90
2018-08-07T10:40:30.737Z,2.73
2018-08-07T10:43:00.163Z,2.90
2018-08-07T10:45:28.869Z,3.20
2018-08-07T10:47:58.078Z,3.30
2018-08-07T10:50:28.136Z,3.03
2018-08-07T10:52:59.818Z,3.63
2018-08-07T10:55:28.566Z,3.17
2018-08-07T10:58:02.073Z,2.93
2018-08-07T11:00:46.443Z,3.00
2018-08-07T11:03:15.214Z,3.33
2018-08-07T11:05:47.612Z,2.90
2018-08-07T11:08:17.903Z,3.27
2018-08-07T11:10:49.486Z,3.30
2018-08-07T11:13:18.750Z,3.10
2018-08-07T11:15:47.600Z,3.27
2018-08-07T11:18:16.898Z,3.07
2018-08-07T11:20:46.108Z,2.43
2018-08-07T11:23:15.810Z,2.73
2018-08-07T11:25:45.362Z,2.70
2018-08-07T11:28:15.123Z,2.50
2018-08-07T11:30:43.843Z,2.90
2018-08-07T11:33:12.884Z,2.90
2018-08-07T11:35:41.699Z,2.83
2018-08-07T11:38:11.236Z,3.20
2018-08-07T11:40:40.233Z,2.60
2018-08-07T11:43:08.996Z,3.10
2018-08-07T11:45:37.986Z,2.90
2018-08-07T11:48:06.804Z,2.67
2018-08-07T11:50:36.770Z,3.07
2018-08-07T11:53:05.582Z,2.80
2018-08-07T11:55:34.620Z,2.73
2018-08-07T11:58:04.546Z,3.00
2018-08-07T12:00:36.119Z,3.00
2018-08-07T12:03:08.029Z,2.20
2018-08-07T12:05:36.901Z,2.47
2018-08-07T12:08:06.201Z,2.80
2018-08-07T12:10:34.953Z,3.00
2018-08-07T12:13:03.775Z,2.83
2018-08-07T12:15:32.587Z,2.63
2018-08-07T12:18:01.639Z,3.10
2018-08-07T12:20:31.073Z,2.60
2018-08-07T12:22:59.895Z,3.10
2018-08-07T12:25:28.615Z,2.40
2018-08-07T12:27:58.196Z,2.90
2018-08-07T12:30:32.085Z,2.93
2018-08-07T12:33:01.075Z,3.02
2018-08-07T12:35:30.955Z,2.45
2018-08-07T12:38:00.079Z,2.67
2018-08-07T12:40:30.399Z,2.40
2018-08-07T12:43:00.989Z,2.30
2018-08-07T12:45:29.780Z,2.40
2018-08-07T12:47:58.759Z,3.08
2018-08-07T12:50:27.606Z,2.85
2018-08-07T12:52:56.427Z,2.70
2018-08-07T12:55:25.399Z,2.50
2018-08-07T12:57:54.611Z,2.40
2018-08-07T13:00:26.446Z,2.10
2018-08-07T13:02:55.258Z,2.80
2018-08-07T13:05:24.292Z,2.90
2018-08-07T13:07:53.338Z,2.65
2018-08-07T13:10:23.350Z,2.20
2018-08-07T13:12:53.111Z,2.27
2018-08-07T13:15:22.288Z,2.98
2018-08-07T13:17:51.810Z,2.58
2018-08-07T13:20:21.134Z,2.37
2018-08-07T13:22:49.959Z,2.75
2018-08-07T13:25:21.451Z,2.60
2018-08-07T13:27:50.194Z,2.50
2018-08-07T13:30:22.417Z,2.90
2018-08-07T13:32:51.568Z,2.33
2018-08-07T13:35:20.670Z,2.77
2018-08-07T13:37:51.015Z,2.57
2018-08-07T13:40:21.108Z,2.30
2018-08-07T13:42:50.246Z,2.25
2018-08-07T13:45:21.591Z,2.47
2018-08-07T13:47:51.277Z,3.12
2018-08-07T13:50:21.704Z,2.50
2018-08-07T13:52:51.032Z,2.33
2018-08-07T13:55:21.230Z,1.98
2018-08-07T13:57:50.624Z,2.30
2018-08-07T14:00:21.880Z,2.10
2018-08-07T14:02:51.142Z,2.25
2018-08-07T14:05:20.654Z,2.60
2018-08-07T14:07:50.521Z,2.12
2018-08-07T14:10:19.882Z,2.55
2018-08-07T14:12:49.435Z,2.17
2018-08-07T14:15:18.903Z,2.60
2018-08-07T14:17:47.811Z,2.35
2018-08-07T14:20:17.513Z,2.70
2018-08-07T14:22:46.669Z,2.10
2018-08-07T14:25:18.880Z,2.20
2018-08-07T14:27:47.871Z,1.90
2018-08-07T14:30:21.798Z,2.30
2018-08-07T14:32:50.867Z,2.30
2018-08-07T14:35:19.664Z,2.27
2018-08-07T14:37:49.362Z,2.30
2018-08-07T14:40:19.623Z,2.50
2018-08-07T14:42:49.467Z,2.10
2018-08-07T14:45:19.870Z,2.80
2018-08-07T14:47:49.657Z,2.00
2018-08-07T14:50:21.951Z,2.52
2018-08-07T14:52:50.810Z,1.90
2018-08-07T14:55:19.583Z,1.90
2018-08-07T14:57:48.334Z,2.50
2018-08-07T15:00:22.942Z,2.50
2018-08-07T15:02:51.626Z,2.00
2018-08-07T15:05:21.285Z,2.08
2018-08-07T15:07:50.048Z,2.60
2018-08-07T15:10:20.947Z,1.98
2018-08-07T15:12:49.934Z,2.12
2018-08-07T15:15:33.918Z,2.02
2018-08-07T15:18:02.814Z,2.10
2018-08-07T15:20:32.390Z,1.75
2018-08-07T15:23:01.145Z,2.15
2018-08-07T15:25:30.318Z,1.87
2018-08-07T15:27:59.068Z,2.67
2018-08-07T15:30:28.919Z,2.58
2018-08-07T15:32:57.867Z,2.37
2018-08-07T15:35:28.688Z,2.45
2018-08-07T15:37:57.782Z,2.30
2018-08-07T15:40:27.034Z,2.90
2018-08-07T15:42:55.787Z,1.60
2018-08-07T15:45:25.791Z,2.42
2018-08-07T15:47:55.310Z,2.20
2018-08-07T15:50:24.077Z,2.35
2018-08-07T15:52:55.017Z,2.22
2018-08-07T15:55:25.860Z,2.42
2018-08-07T15:57:54.914Z,2.02
2018-08-07T16:00:27.695Z,2.52
2018-08-07T16:02:56.458Z,2.30
2018-08-07T16:05:25.173Z,2.35
2018-08-07T16:07:55.718Z,3.05
2018-08-07T16:10:24.525Z,2.27
2018-08-07T16:12:54.325Z,2.75
2018-08-07T16:15:23.215Z,2.22
2018-08-07T16:17:52.731Z,2.50
2018-08-07T16:20:21.905Z,2.52
2018-08-07T16:22:50.933Z,2.60
2018-08-07T16:25:20.642Z,2.60
2018-08-07T16:27:51.064Z,2.30
2018-08-07T16:30:22.777Z,2.00
2018-08-07T16:32:51.457Z,2.50
2018-08-07T16:35:20.197Z,2.00
2018-08-07T16:37:49.571Z,2.47
2018-08-07T16:40:21.337Z,2.30
2018-08-07T16:42:51.003Z,2.13
2018-08-07T16:45:20.858Z,2.90
2018-08-07T16:47:49.670Z,2.53
2018-08-07T16:50:21.722Z,2.80
2018-08-07T16:52:52.289Z,2.80
2018-08-07T16:55:22.141Z,2.50
2018-08-07T16:57:51.578Z,2.40
2018-08-07T17:00:20.920Z,2.27
2018-08-07T17:02:50.006Z,2.30
2018-08-07T17:05:19.219Z,2.73
2018-08-07T17:07:48.991Z,2.50
2018-08-07T17:10:22.775Z,2.77
2018-08-07T17:12:52.231Z,2.43
2018-08-07T17:15:21.028Z,2.50
2018-08-07T17:17:50.422Z,2.80
2018-08-07T17:20:21.069Z,2.50
2018-08-07T17:22:50.390Z,2.57
2018-08-07T17:25:20.592Z,2.60
2018-08-07T17:27:50.168Z,2.40
2018-08-07T17:30:21.038Z,2.50
2018-08-07T17:32:49.788Z,3.00
2018-08-07T17:35:21.539Z,2.70
2018-08-07T17:37:54.785Z,3.37
2018-08-07T17:40:25.103Z,2.90
2018-08-07T17:42:53.918Z,3.50
2018-08-07T17:45:22.633Z,3.60
2018-08-07T17:47:52.139Z,3.73
2018-08-07T17:50:22.729Z,3.60
2018-08-07T17:52:52.540Z,3.43
2018-08-07T17:55:21.518Z,2.90
2018-08-07T17:57:51.212Z,2.73
2018-08-07T18:00:21.834Z,3.40
2018-08-07T18:02:50.846Z,3.33
2018-08-07T18:05:20.065Z,3.73
2018-08-07T18:07:50.390Z,2.90
2018-08-07T18:10:20.890Z,2.90
2018-08-07T18:12:50.010Z,2.67
2018-08-07T18:15:20.427Z,3.50
2018-08-07T18:17:49.831Z,3.57
2018-08-07T18:20:22.883Z,2.97
2018-08-07T18:22:52.096Z,3.10
2018-08-07T18:25:20.852Z,3.33
2018-08-07T18:27:49.718Z,3.13
2018-08-07T18:30:21.043Z,2.63
2018-08-07T18:32:50.335Z,2.57
2018-08-07T18:35:21.284Z,3.63
2018-08-07T18:37:50.148Z,2.27
2018-08-07T18:40:18.958Z,3.60
2018-08-07T18:42:47.980Z,2.40
2018-08-07T18:45:17.092Z,2.90
2018-08-07T18:47:46.745Z,3.70
2018-08-07T18:50:19.801Z,3.80
2018-08-07T18:52:48.621Z,3.00
2018-08-07T18:55:17.576Z,2.40
2018-08-07T18:57:47.563Z,3.90
2018-08-07T19:00:18.003Z,2.70
2018-08-07T19:02:47.523Z,2.70
2018-08-07T19:05:17.641Z,1.93
2018-08-07T19:07:46.554Z,2.63
2018-08-07T19:10:15.926Z,3.30
2018-08-07T19:12:45.542Z,3.50
2018-08-07T19:15:15.701Z,2.93
2018-08-07T19:17:46.290Z,3.67
2018-08-07T19:20:17.687Z,2.40
2018-08-07T19:22:46.750Z,2.93
2018-08-07T19:25:15.566Z,2.80
2018-08-07T19:27:44.970Z,3.80
2018-08-07T19:30:16.273Z,2.50
2018-08-07T19:32:45.055Z,3.17
2018-08-07T19:35:15.290Z,3.63
2018-08-07T19:37:44.321Z,3.10
2018-08-07T19:40:16.916Z,3.23
2018-08-07T19:42:46.782Z,3.27
2018-08-07T19:45:15.918Z,3.83
2018-08-07T19:47:45.226Z,3.20
2018-08-07T19:50:16.017Z,3.10
2018-08-07T19:52:44.822Z,3.17
2018-08-07T19:55:16.427Z,3.50
2018-08-07T19:57:45.473Z,3.30
2018-08-07T20:00:21.934Z,3.70
2018-08-07T20:02:51.209Z,3.77
2018-08-07T20:05:20.326Z,3.33
2018-08-07T20:07:50.316Z,3.10
2018-08-07T20:10:19.681Z,3.63
2018-08-07T20:12:48.770Z,3.57
2018-08-07T20:15:19.729Z,3.87
2018-08-07T20:17:49.497Z,3.83
2018-08-07T20:20:18.690Z,3.10
2018-08-07T20:22:47.696Z,3.40
2018-08-07T20:25:16.490Z,3.90
2018-08-07T20:27:45.574Z,3.50
2018-08-07T20:30:16.963Z,4.20
2018-08-07T20:32:47.119Z,4.37
2018-08-07T20:35:16.031Z,3.30
2018-08-07T20:37:45.408Z,3.27
2018-08-07T20:40:19.447Z,3.87
2018-08-07T20:42:51.167Z,3.27
2018-08-07T20:45:21.160Z,3.63
2018-08-07T20:47:50.812Z,4.13
2018-08-07T20:50:23.161Z,3.50
2018-08-07T20:52:54.138Z,3.47
2018-08-07T20:55:23.870Z,3.80
2018-08-07T20:57:52.680Z,3.10
2018-08-07T21:00:23.527Z,3.50
2018-08-07T21:02:52.400Z,3.97
2018-08-07T21:05:22.088Z,3.90
2018-08-07T21:07:51.329Z,4.03
2018-08-07T21:10:23.719Z,3.93
2018-08-07T21:12:52.887Z,3.97
2018-08-07T21:15:21.872Z,3.90
2018-08-07T21:17:50.958Z,4.40
2018-08-07T21:20:22.165Z,3.67
2018-08-07T21:22:51.253Z,3.47
2018-08-07T21:25:25.021Z,2.70
2018-08-07T21:27:57.123Z,3.60
2018-08-07T21:30:28.963Z,3.00
2018-08-07T21:32:58.226Z,4.50
2018-08-07T21:35:26.965Z,4.30
2018-08-07T21:37:55.901Z,4.43
2018-08-07T21:40:25.408Z,4.37
2018-08-07T21:42:55.533Z,3.80
2018-08-07T21:45:24.726Z,3.30
2018-08-07T21:47:53.540Z,4.20
2018-08-07T21:50:23.806Z,4.00
2018-08-07T21:52:53.002Z,3.47
2018-08-07T21:55:22.334Z,3.87
2018-08-07T21:57:51.407Z,3.33
2018-08-07T22:00:24.598Z,3.97
2018-08-07T22:02:53.764Z,3.43
2018-08-07T22:05:22.875Z,3.37
2018-08-07T22:07:51.787Z,4.40
2018-08-07T22:10:22.031Z,4.13
2018-08-07T22:12:50.890Z,4.20
2018-08-07T22:15:20.260Z,3.23
2018-08-07T22:17:49.027Z,3.53
2018-08-07T22:20:17.952Z,3.43
2018-08-07T22:22:46.655Z,4.23
2018-08-07T22:25:15.724Z,4.00
2018-08-07T22:27:44.938Z,4.30
2018-08-07T22:30:19.309Z,4.57
2018-08-07T22:32:48.552Z,3.50
2018-08-07T22:35:17.455Z,4.87
2018-08-07T22:37:46.328Z,4.13
2018-08-07T22:40:15.844Z,4.07
2018-08-07T22:42:45.343Z,3.90
2018-08-07T22:45:15.643Z,3.43
2018-08-07T22:47:44.910Z,3.70
2018-08-07T22:50:15.279Z,4.00
2018-08-07T22:52:44.676Z,3.60
2018-08-07T22:55:16.285Z,4.53
2018-08-07T22:57:45.586Z,4.53
2018-08-07T23:00:18.167Z,4.03
2018-08-07T23:02:47.601Z,3.60
2018-08-07T23:05:17.539Z,4.00
2018-08-07T23:07:46.225Z,4.73
2018-08-07T23:10:20.202Z,4.30
2018-08-07T23:12:49.154Z,3.57
2018-08-07T23:15:19.635Z,4.03
2018-08-07T23:17:49.455Z,4.50
2018-08-07T23:20:20.020Z,4.30
2018-08-07T23:22:49.152Z,4.80
2018-08-07T23:25:18.019Z,4.80
2018-08-07T23:27:47.205Z,4.10
2018-08-07T23:30:17.643Z,3.63
2018-08-07T23:32:46.466Z,4.37
2018-08-07T23:35:16.029Z,4.47
2018-08-07T23:37:44.826Z,3.70
2018-08-07T23:40:14.559Z,3.60
2018-08-07T23:42:44.018Z,3.53
2018-08-07T23:45:14.489Z,4.10
2018-08-07T23:47:43.389Z,3.70
2018-08-07T23:50:12.983Z,4.10
2018-08-07T23:52:42.037Z,3.83
2018-08-07T23:55:12.037Z,4.10
2018-08-07T23:57:41.038Z,3.77
